Time,TemperatureF,DewpointF,PressureIn,WindDirection,WindDirectionDegrees,WindSpeedMPH,WindSpeedGustMPH,Humidity,HourlyPrecipIn,Conditions,Clouds,dailyrainin,SolarRadiationWatts/m^2,SoftwareType,DateUTC
2013-11-10 00:02:00,45.8,31.4,29.95,North,360,2.0,4.0,57,0.00,,,0.00,0,Wunderground v.1.15,2013-11-10 05:02:00,
2013-11-10 00:06:00,45.8,31.9,29.95,North,360,2.0,3.0,58,0.00,,,0.00,0,Wunderground v.1.15,2013-11-10 05:06:00,
2013-11-10 00:10:00,45.8,31.9,29.95,NNE,25,2.0,3.0,58,0.00,,,0.00,0,Wunderground v.1.15,2013-11-10 05:10:00,
2013-11-10 00:16:00,45.8,31.9,29.95,NNE,23,1.0,1.0,58,0.00,,,0.00,0,Wunderground v.1.15,2013-11-10 05:16:00,
2013-11-10 00:20:00,45.8,31.9,29.95,NNE,24,1.0,1.0,58,0.00,,,0.00,0,Wunderground v.1.15,2013-11-10 05:20:00,
2013-11-10 00:22:00,45.8,32.3,29.95,NNE,24,1.0,1.0,59,0.00,,,0.00,0,Wunderground v.1.15,2013-11-10 05:22:00,
2013-11-10 00:30:00,45.7,32.2,29.95,North,360,1.0,2.0,59,0.00,,,0.00,0,Wunderground v.1.15,2013-11-10 05:30:00,
2013-11-10 00:36:00,45.5,32.0,29.94,NNE,25,1.0,1.0,59,0.00,,,0.00,0,Wunderground v.1.15,2013-11-10 05:36:00,
2013-11-10 00:42:00,45.5,32.4,29.94,NNE,25,1.0,2.0,60,0.00,,,0.00,0,Wunderground v.1.15,2013-11-10 05:42:00,
2013-11-10 00:49:00,45.5,32.4,29.93,North,360,1.0,1.0,60,0.00,,,0.00,0,Wunderground v.1.15,2013-11-10 05:49:00,
2013-11-10 00:55:00,45.4,32.3,29.93,NNE,26,1.0,1.0,60,0.00,,,0.00,0,Wunderground v.1.15,2013-11-10 05:55:00,
2013-11-10 01:01:00,45.4,32.7,29.92,North,360,1.0,1.0,61,0.00,,,0.00,0,Wunderground v.1.15,2013-11-10 06:01:00,
2013-11-10 01:08:00,45.4,32.7,29.92,North,360,1.0,3.0,61,0.00,,,0.00,0,Wunderground v.1.15,2013-11-10 06:08:00,
2013-11-10 01:15:00,45.2,32.5,29.92,North,360,1.0,2.0,61,0.00,,,0.00,0,Wunderground v.1.15,2013-11-10 06:15:00,
2013-11-10 01:21:00,45.2,32.9,29.92,North,360,2.0,2.0,62,0.00,,,0.00,0,Wunderground v.1.15,2013-11-10 06:21:00,
2013-11-10 01:29:00,45.1,32.8,29.92,North,360,1.0,2.0,62,0.00,,,0.00,0,Wunderground v.1.15,2013-11-10 06:29:00,
2013-11-10 01:35:00,44.9,32.7,29.91,NNE,26,2.0,2.0,62,0.00,,,0.00,0,Wunderground v.1.15,2013-11-10 06:35:00,
2013-11-10 01:41:00,44.9,33.1,29.91,North,360,2.0,2.0,63,0.00,,,0.00,0,Wunderground v.1.15,2013-11-10 06:41:00,
2013-11-10 01:47:00,44.9,33.1,29.91,NNE,28,1.0,2.0,63,0.00,,,0.00,0,Wunderground v.1.15,2013-11-10 06:47:00,
2013-11-10 01:53:00,44.9,33.1,29.91,North,360,1.0,3.0,63,0.00,,,0.00,0,Wunderground v.1.15,2013-11-10 06:53:00,
2013-11-10 02:01:00,44.8,33.4,29.90,North,360,1.0,1.0,64,0.00,,,0.00,0,Wunderground v.1.15,2013-11-10 07:01:00,
2013-11-10 02:06:00,44.8,33.4,29.90,NNE,27,1.0,1.0,64,0.00,,,0.00,0,Wunderground v.1.15,2013-11-10 07:06:00,
2013-11-10 02:12:00,44.6,33.2,29.90,NNE,27,1.0,3.0,64,0.00,,,0.00,0,Wunderground v.1.15,2013-11-10 07:12:00,
2013-11-10 02:19:00,44.6,33.2,29.90,NNE,27,0.0,0.0,64,0.00,,,0.00,0,Wunderground v.1.15,2013-11-10 07:19:00,
2013-11-10 02:24:00,44.6,33.2,29.90,NNE,27,0.0,1.0,64,0.00,,,0.00,0,Wunderground v.1.15,2013-11-10 07:24:00,
2013-11-10 02:30:00,44.5,33.5,29.90,NNE,27,1.0,1.0,65,0.00,,,0.00,0,Wunderground v.1.15,2013-11-10 07:30:00,
2013-11-10 02:36:00,44.5,33.5,29.90,NNE,26,0.0,0.0,65,0.00,,,0.00,0,Wunderground v.1.15,2013-11-10 07:36:00,
2013-11-10 02:42:00,44.5,33.5,29.90,NNE,26,0.0,0.0,65,0.00,,,0.00,0,Wunderground v.1.15,2013-11-10 07:42:00,
2013-11-10 02:50:00,44.3,33.3,29.90,NNE,27,0.0,0.0,65,0.00,,,0.00,0,Wunderground v.1.15,2013-11-10 07:50:00,
2013-11-10 02:56:00,44.3,33.7,29.90,NNE,26,1.0,2.0,66,0.00,,,0.00,0,Wunderground v.1.15,2013-11-10 07:56:00,
2013-11-10 03:02:00,44.3,33.7,29.89,NNE,27,1.0,2.0,66,0.00,,,0.00,0,Wunderground v.1.15,2013-11-10 08:02:00,
2013-11-10 03:10:00,44.2,33.6,29.89,NNE,26,1.0,2.0,66,0.00,,,0.00,0,Wunderground v.1.15,2013-11-10 08:10:00,
2013-11-10 03:16:00,44.2,33.6,29.88,NNE,26,0.0,0.0,66,0.00,,,0.00,0,Wunderground v.1.15,2013-11-10 08:16:00,
2013-11-10 03:22:00,44.1,33.5,29.88,NNE,26,0.0,0.0,66,0.00,,,0.00,0,Wunderground v.1.15,2013-11-10 08:22:00,
2013-11-10 03:28:00,43.9,33.3,29.88,North,360,1.0,1.0,66,0.00,,,0.00,0,Wunderground v.1.15,2013-11-10 08:28:00,
2013-11-10 03:36:00,43.8,33.6,29.88,NNE,26,1.0,2.0,67,0.00,,,0.00,0,Wunderground v.1.15,2013-11-10 08:36:00,
2013-11-10 03:42:00,43.6,33.4,29.88,NNE,26,1.0,2.0,67,0.00,,,0.00,0,Wunderground v.1.15,2013-11-10 08:42:00,
2013-11-10 03:50:00,43.5,33.3,29.88,NNE,26,0.0,0.0,67,0.00,,,0.00,0,Wunderground v.1.15,2013-11-10 08:50:00,
2013-11-10 03:56:00,43.3,33.4,29.88,NNE,25,0.0,0.0,68,0.00,,,0.00,0,Wunderground v.1.15,2013-11-10 08:56:00,
2013-11-10 04:02:00,43.2,33.3,29.88,NNE,25,0.0,0.0,68,0.00,,,0.00,0,Wunderground v.1.15,2013-11-10 09:02:00,
2013-11-10 04:09:00,42.9,33.4,29.88,NNE,25,0.0,0.0,69,0.00,,,0.00,0,Wunderground v.1.15,2013-11-10 09:09:00,
2013-11-10 04:15:00,42.8,33.7,29.88,NNE,25,0.0,0.0,70,0.00,,,0.00,0,Wunderground v.1.15,2013-11-10 09:15:00,
2013-11-10 04:21:00,42.5,33.4,29.88,NNE,25,0.0,0.0,70,0.00,,,0.00,0,Wunderground v.1.15,2013-11-10 09:21:00,
2013-11-10 04:29:00,42.3,33.6,29.88,North,360,0.0,0.0,71,0.00,,,0.00,0,Wunderground v.1.15,2013-11-10 09:29:00,
2013-11-10 04:35:00,42.1,33.4,29.87,North,360,0.0,0.0,71,0.00,,,0.00,0,Wunderground v.1.15,2013-11-10 09:35:00,
2013-11-10 04:41:00,41.9,33.5,29.87,NNE,25,0.0,0.0,72,0.00,,,0.00,0,Wunderground v.1.15,2013-11-10 09:41:00,
2013-11-10 04:47:00,41.8,33.4,29.87,North,360,0.0,0.0,72,0.00,,,0.00,0,Wunderground v.1.15,2013-11-10 09:47:00,
2013-11-10 04:53:00,41.8,33.8,29.87,NNE,25,0.0,0.0,73,0.00,,,0.00,0,Wunderground v.1.15,2013-11-10 09:53:00,
2013-11-10 04:59:00,41.8,33.8,29.87,North,360,0.0,0.0,73,0.00,,,0.00,0,Wunderground v.1.15,2013-11-10 09:59:00,
2013-11-10 05:07:00,41.6,33.6,29.87,NNE,25,0.0,0.0,73,0.00,,,0.00,0,Wunderground v.1.15,2013-11-10 10:07:00,
2013-11-10 05:13:00,41.6,33.9,29.87,NNE,25,0.0,0.0,74,0.00,,,0.00,0,Wunderground v.1.15,2013-11-10 10:13:00,
2013-11-10 05:19:00,41.5,33.8,29.87,NNE,25,0.0,2.0,74,0.00,,,0.00,0,Wunderground v.1.15,2013-11-10 10:19:00,
2013-11-10 05:26:00,41.3,33.6,29.87,NNE,25,1.0,1.0,74,0.00,,,0.00,0,Wunderground v.1.15,2013-11-10 10:26:00,
2013-11-10 05:32:00,41.3,33.6,29.87,NNE,25,0.0,0.0,74,0.00,,,0.00,0,Wunderground v.1.15,2013-11-10 10:32:00,
2013-11-10 05:38:00,41.2,33.5,29.87,NNE,25,0.0,0.0,74,0.00,,,0.00,0,Wunderground v.1.15,2013-11-10 10:38:00,
2013-11-10 05:45:00,41.2,33.9,29.87,NNE,25,0.0,0.0,75,0.00,,,0.00,0,Wunderground v.1.15,2013-11-10 10:45:00,
2013-11-10 05:50:00,41.1,33.8,29.87,North,360,0.0,1.0,75,0.00,,,0.00,0,Wunderground v.1.15,2013-11-10 10:50:00,
2013-11-10 05:56:00,40.9,33.6,29.87,NNE,25,0.0,0.0,75,0.00,,,0.00,0,Wunderground v.1.15,2013-11-10 10:56:00,
2013-11-10 06:02:00,40.9,33.6,29.86,North,360,0.0,0.0,75,0.00,,,0.00,0,Wunderground v.1.15,2013-11-10 11:02:00,
2013-11-10 06:05:00,40.8,33.5,29.86,North,360,0.0,0.0,75,0.00,,,0.00,0,Wunderground v.1.15,2013-11-10 11:05:00,
2013-11-10 06:10:00,40.8,33.5,29.86,NNE,24,0.0,0.0,75,0.00,,,0.00,0,Wunderground v.1.15,2013-11-10 11:10:00,
2013-11-10 06:16:00,40.6,33.3,29.86,NNE,25,0.0,0.0,75,0.00,,,0.00,0,Wunderground v.1.15,2013-11-10 11:16:00,
2013-11-10 06:22:00,40.5,33.5,29.86,NNE,24,0.0,0.0,76,0.00,,,0.00,0,Wunderground v.1.15,2013-11-10 11:22:00,
2013-11-10 06:28:00,40.3,33.3,29.86,NNE,24,0.0,0.0,76,0.00,,,0.00,0,Wunderground v.1.15,2013-11-10 11:28:00,
2013-11-10 06:36:00,40.1,33.5,29.85,North,360,0.0,0.0,77,0.00,,,0.00,0,Wunderground v.1.15,2013-11-10 11:36:00,
2013-11-10 06:42:00,39.9,33.3,29.85,NNE,24,0.0,0.0,77,0.00,,,0.00,5,Wunderground v.1.15,2013-11-10 11:42:00,
2013-11-10 06:48:00,39.8,33.2,29.85,North,360,0.0,0.0,77,0.00,,,0.00,9,Wunderground v.1.15,2013-11-10 11:48:00,
2013-11-10 06:54:00,39.6,33.0,29.85,NNE,24,0.0,0.0,77,0.00,,,0.00,12,Wunderground v.1.15,2013-11-10 11:54:00,
2013-11-10 07:00:00,39.5,33.2,29.85,North,360,0.0,0.0,78,0.00,,,0.00,25,Wunderground v.1.15,2013-11-10 12:00:00,
2013-11-10 07:06:00,39.5,33.2,29.86,North,360,0.0,0.0,78,0.00,,,0.00,32,Wunderground v.1.15,2013-11-10 12:06:00,
2013-11-10 07:12:00,39.6,33.6,29.86,NNE,25,0.0,0.0,79,0.00,,,0.00,42,Wunderground v.1.15,2013-11-10 12:12:00,
2013-11-10 07:18:00,39.9,33.9,29.86,NNE,25,0.0,1.0,79,0.00,,,0.00,54,Wunderground v.1.15,2013-11-10 12:18:00,
2013-11-10 07:26:00,40.3,34.0,29.86,NNE,22,1.0,2.0,78,0.00,,,0.00,72,Wunderground v.1.15,2013-11-10 12:26:00,
2013-11-10 07:32:00,40.8,34.1,29.86,NNE,20,1.0,1.0,77,0.00,,,0.00,84,Wunderground v.1.15,2013-11-10 12:32:00,
2013-11-10 07:38:00,41.1,34.4,29.86,NNE,20,1.0,1.0,77,0.00,,,0.00,97,Wunderground v.1.15,2013-11-10 12:38:00,
2013-11-10 07:45:00,41.6,34.3,29.86,North,360,0.0,0.0,75,0.00,,,0.00,116,Wunderground v.1.15,2013-11-10 12:45:00,
2013-11-10 07:51:00,42.1,34.1,29.86,North,360,0.0,0.0,73,0.00,,,0.00,127,Wunderground v.1.15,2013-11-10 12:51:00,
2013-11-10 07:57:00,42.5,34.1,29.86,NNE,20,0.0,2.0,72,0.00,,,0.00,141,Wunderground v.1.15,2013-11-10 12:57:00,
2013-11-10 08:04:00,42.9,34.1,29.86,NNE,14,1.0,1.0,71,0.00,,,0.00,149,Wunderground v.1.15,2013-11-10 13:04:00,
2013-11-10 08:11:00,43.3,33.8,29.86,NNE,13,1.0,1.0,69,0.00,,,0.00,176,Wunderground v.1.15,2013-11-10 13:11:00,
2013-11-10 08:17:00,43.9,33.6,29.86,NNE,22,1.0,2.0,67,0.00,,,0.00,190,Wunderground v.1.15,2013-11-10 13:17:00,
2013-11-10 08:25:00,44.6,33.6,29.86,NNE,20,1.0,1.0,65,0.00,,,0.00,204,Wunderground v.1.15,2013-11-10 13:25:00,
2013-11-10 08:31:00,45.4,33.5,29.86,NNE,15,1.0,1.0,63,0.00,,,0.00,218,Wunderground v.1.15,2013-11-10 13:31:00,
2013-11-10 08:37:00,46.1,33.0,29.86,NNE,19,1.0,1.0,60,0.00,,,0.00,232,Wunderground v.1.15,2013-11-10 13:37:00,
2013-11-10 08:45:00,47.1,32.6,29.86,NNE,20,2.0,4.0,57,0.00,,,0.00,250,Wunderground v.1.15,2013-11-10 13:45:00,
2013-11-10 08:51:00,47.9,32.9,29.85,NNE,21,2.0,2.0,56,0.00,,,0.00,260,Wunderground v.1.15,2013-11-10 13:51:00,
2013-11-10 08:57:00,48.6,33.1,29.85,NNE,21,1.0,2.0,55,0.00,,,0.00,272,Wunderground v.1.15,2013-11-10 13:57:00,
2013-11-10 09:05:00,49.6,32.2,29.85,NNE,25,2.0,2.0,51,0.00,,,0.00,288,Wunderground v.1.15,2013-11-10 14:05:00,
2013-11-10 09:11:00,50.5,31.0,29.85,North,360,2.0,2.0,47,0.00,,,0.00,301,Wunderground v.1.15,2013-11-10 14:11:00,
2013-11-10 09:17:00,51.4,29.6,29.84,North,360,4.0,9.0,43,0.00,,,0.00,311,Wunderground v.1.15,2013-11-10 14:17:00,
2013-11-10 09:25:00,52.3,29.9,29.84,NNE,29,4.0,6.0,42,0.00,,,0.00,329,Wunderground v.1.15,2013-11-10 14:25:00,
2013-11-10 09:31:00,53.1,30.6,29.84,North,360,4.0,4.0,42,0.00,,,0.00,338,Wunderground v.1.15,2013-11-10 14:31:00,
2013-11-10 09:37:00,53.8,30.6,29.84,North,360,4.0,7.0,41,0.00,,,0.00,348,Wunderground v.1.15,2013-11-10 14:37:00,
2013-11-10 09:44:00,54.8,30.9,29.84,NNE,24,2.0,5.0,40,0.00,,,0.00,360,Wunderground v.1.15,2013-11-10 14:44:00,
2013-11-10 09:51:00,55.6,31.0,29.83,North,360,4.0,5.0,39,0.00,,,0.00,371,Wunderground v.1.15,2013-11-10 14:51:00,
2013-11-10 09:56:00,56.0,30.7,29.83,North,360,6.0,6.0,38,0.00,,,0.00,380,Wunderground v.1.15,2013-11-10 14:56:00,
2013-11-10 10:04:00,56.9,30.9,29.82,North,360,4.0,5.0,37,0.00,,,0.00,388,Wunderground v.1.15,2013-11-10 15:04:00,
2013-11-10 10:10:00,57.6,30.1,29.82,North,360,5.0,5.0,35,0.00,,,0.00,396,Wunderground v.1.15,2013-11-10 15:10:00,
2013-11-10 10:16:00,58.1,30.6,29.82,North,360,6.0,10.0,35,0.00,,,0.00,406,Wunderground v.1.15,2013-11-10 15:16:00,
2013-11-10 10:23:00,58.4,30.1,29.82,North,360,7.0,9.0,34,0.00,,,0.00,417,Wunderground v.1.15,2013-11-10 15:23:00,
2013-11-10 10:30:00,58.9,30.6,29.82,North,360,7.0,15.0,34,0.00,,,0.00,422,Wunderground v.1.15,2013-11-10 15:30:00,
2013-11-10 10:36:00,58.9,30.6,29.81,North,360,8.0,15.0,34,0.00,,,0.00,427,Wunderground v.1.15,2013-11-10 15:36:00,
2013-11-10 10:43:00,59.0,30.6,29.81,North,360,8.0,9.0,34,0.00,,,0.00,432,Wunderground v.1.15,2013-11-10 15:43:00,
2013-11-10 10:48:00,59.2,30.1,29.81,North,360,8.0,13.0,33,0.00,,,0.00,439,Wunderground v.1.15,2013-11-10 15:48:00,
2013-11-10 10:54:00,59.0,29.2,29.81,North,360,8.0,10.0,32,0.00,,,0.00,448,Wunderground v.1.15,2013-11-10 15:54:00,
2013-11-10 11:00:00,59.2,28.5,29.81,North,360,8.0,10.0,31,0.00,,,0.00,452,Wunderground v.1.15,2013-11-10 16:00:00,
2013-11-10 11:06:00,59.6,28.9,29.80,North,360,7.0,10.0,31,0.00,,,0.00,452,Wunderground v.1.15,2013-11-10 16:06:00,
2013-11-10 11:14:00,60.1,28.5,29.80,North,360,6.0,7.0,30,0.00,,,0.00,461,Wunderground v.1.15,2013-11-10 16:14:00,
2013-11-10 11:20:00,60.1,27.7,29.80,North,360,8.0,10.0,29,0.00,,,0.00,468,Wunderground v.1.15,2013-11-10 16:20:00,
2013-11-10 11:26:00,59.8,27.4,29.80,North,360,9.0,10.0,29,0.00,,,0.00,459,Wunderground v.1.15,2013-11-10 16:26:00,
2013-11-10 11:34:00,59.9,26.7,29.80,North,360,8.0,18.0,28,0.00,,,0.00,466,Wunderground v.1.15,2013-11-10 16:34:00,
2013-11-10 11:40:00,59.6,26.4,29.80,North,360,8.0,8.0,28,0.00,,,0.00,480,Wunderground v.1.15,2013-11-10 16:40:00,
2013-11-10 11:46:00,59.9,27.5,29.79,North,360,7.0,10.0,29,0.00,,,0.00,520,Wunderground v.1.15,2013-11-10 16:46:00,
2013-11-10 11:54:00,60.7,28.2,29.79,NNE,24,5.0,7.0,29,0.00,,,0.00,570,Wunderground v.1.15,2013-11-10 16:54:00,
2013-11-10 12:00:00,60.9,27.5,29.79,North,360,7.0,7.0,28,0.00,,,0.00,624,Wunderground v.1.15,2013-11-10 17:00:00,
2013-11-10 12:05:00,60.7,27.4,29.79,North,360,7.0,8.0,28,0.00,,,0.00,279,Wunderground v.1.15,2013-11-10 17:05:00,
2013-11-10 12:13:00,60.1,27.7,29.79,North,360,7.0,7.0,29,0.00,,,0.00,141,Wunderground v.1.15,2013-11-10 17:13:00,
2013-11-10 12:19:00,59.3,27.0,29.78,North,360,7.0,7.0,29,0.00,,,0.00,160,Wunderground v.1.15,2013-11-10 17:19:00,
2013-11-10 12:25:00,59.0,25.9,29.78,North,360,6.0,7.0,28,0.00,,,0.00,234,Wunderground v.1.15,2013-11-10 17:25:00,
2013-11-10 12:33:00,58.7,25.6,29.77,North,360,8.0,15.0,28,0.00,,,0.00,241,Wunderground v.1.15,2013-11-10 17:33:00,
2013-11-10 12:39:00,58.6,25.6,29.77,North,360,9.0,9.0,28,0.00,,,0.00,524,Wunderground v.1.15,2013-11-10 17:39:00,
2013-11-10 12:45:00,58.7,25.6,29.77,North,360,9.0,12.0,28,0.00,,,0.00,211,Wunderground v.1.15,2013-11-10 17:45:00,
2013-11-10 12:53:00,58.6,26.4,29.77,North,360,8.0,8.0,29,0.00,,,0.00,225,Wunderground v.1.15,2013-11-10 17:53:00,
2013-11-10 12:59:00,58.6,26.4,29.77,North,360,7.0,7.0,29,0.00,,,0.00,113,Wunderground v.1.15,2013-11-10 17:59:00,
2013-11-10 13:05:00,58.3,27.0,29.77,North,360,6.0,7.0,30,0.00,,,0.00,84,Wunderground v.1.15,2013-11-10 18:05:00,
2013-11-10 13:13:00,58.1,27.6,29.77,North,360,5.0,6.0,31,0.00,,,0.00,32,Wunderground v.1.15,2013-11-10 18:13:00,
2013-11-10 13:19:00,57.6,27.9,29.78,North,360,5.0,11.0,32,0.00,,,0.00,18,Wunderground v.1.15,2013-11-10 18:19:00,
2013-11-10 13:25:00,57.3,29.1,29.78,North,360,6.0,11.0,34,0.00,,,0.00,16,Wunderground v.1.15,2013-11-10 18:25:00,
2013-11-10 13:33:00,54.5,36.7,29.81,North,360,9.0,9.0,51,0.00,,,0.00,26,Wunderground v.1.15,2013-11-10 18:33:00,
2013-11-10 13:39:00,52.5,38.1,29.81,North,360,7.0,8.0,58,0.00,,,0.00,30,Wunderground v.1.15,2013-11-10 18:39:00,
2013-11-10 13:45:00,51.4,38.4,29.81,North,360,6.0,8.0,61,0.00,,,0.00,25,Wunderground v.1.15,2013-11-10 18:45:00,
2013-11-10 13:51:00,50.7,38.1,29.82,North,360,5.0,5.0,62,0.00,,,0.00,25,Wunderground v.1.15,2013-11-10 18:51:00,
2013-11-10 13:59:00,50.2,38.5,29.82,North,360,5.0,6.0,64,0.00,,,0.00,23,Wunderground v.1.15,2013-11-10 18:59:00,
2013-11-10 14:05:00,49.9,38.2,29.84,North,360,4.0,6.0,64,0.00,,,0.00,32,Wunderground v.1.15,2013-11-10 19:05:00,
2013-11-10 14:11:00,49.8,38.1,29.84,North,360,3.0,3.0,64,0.00,,,0.00,33,Wunderground v.1.15,2013-11-10 19:11:00,
2013-11-10 14:19:00,49.6,37.9,29.85,North,360,4.0,4.0,64,0.00,,,0.00,16,Wunderground v.1.15,2013-11-10 19:19:00,
2013-11-10 14:24:00,49.5,37.4,29.85,North,360,3.0,8.0,63,0.00,,,0.00,9,Wunderground v.1.15,2013-11-10 19:24:00,
2013-11-10 14:32:00,49.2,36.7,29.86,NNE,30,3.0,6.0,62,0.00,,,0.00,9,Wunderground v.1.15,2013-11-10 19:32:00,
2013-11-10 14:38:00,49.1,36.2,29.86,North,360,3.0,3.0,61,0.00,,,0.00,11,Wunderground v.1.15,2013-11-10 19:38:00,
2013-11-10 14:45:00,49.1,35.4,29.86,North,360,5.0,7.0,59,0.00,,,0.00,21,Wunderground v.1.15,2013-11-10 19:45:00,
2013-11-10 14:53:00,49.1,35.4,29.87,North,360,5.0,5.0,59,0.00,,,0.00,47,Wunderground v.1.15,2013-11-10 19:53:00,
2013-11-10 15:04:00,49.2,35.0,29.87,North,360,3.0,3.0,58,0.00,,,0.00,79,Wunderground v.1.15,2013-11-10 20:04:00,
2013-11-10 15:13:00,49.5,34.0,29.87,North,360,5.0,5.0,55,0.00,,,0.00,79,Wunderground v.1.15,2013-11-10 20:13:00,
2013-11-10 15:23:00,49.5,33.5,29.87,NNE,30,4.0,4.0,54,0.00,,,0.00,49,Wunderground v.1.15,2013-11-10 20:23:00,
2013-11-10 15:32:00,49.4,33.0,29.88,North,360,4.0,9.0,53,0.00,,,0.00,56,Wunderground v.1.15,2013-11-10 20:32:00,
2013-11-10 15:42:00,49.5,32.6,29.88,NNE,19,4.0,7.0,52,0.00,,,0.00,91,Wunderground v.1.15,2013-11-10 20:42:00,
2013-11-10 15:52:00,49.6,32.2,29.87,North,360,4.0,4.0,51,0.00,,,0.00,18,Wunderground v.1.15,2013-11-10 20:52:00,
2013-11-10 16:02:00,49.4,32.5,29.88,North,360,5.0,5.0,52,0.00,,,0.00,18,Wunderground v.1.15,2013-11-10 21:02:00,
2013-11-10 16:12:00,49.4,32.5,29.88,North,360,3.0,3.0,52,0.00,,,0.00,16,Wunderground v.1.15,2013-11-10 21:12:00,
2013-11-10 16:22:00,49.4,33.0,29.88,North,360,3.0,3.0,53,0.00,,,0.00,12,Wunderground v.1.15,2013-11-10 21:22:00,
2013-11-10 16:32:00,49.2,33.3,29.89,North,360,5.0,5.0,54,0.00,,,0.00,7,Wunderground v.1.15,2013-11-10 21:32:00,
2013-11-10 16:42:00,48.9,33.4,29.89,North,360,4.0,4.0,55,0.00,,,0.00,0,Wunderground v.1.15,2013-11-10 21:42:00,
2013-11-10 16:52:00,49.1,33.2,29.89,North,360,6.0,6.0,54,0.00,,,0.00,0,Wunderground v.1.15,2013-11-10 21:52:00,
2013-11-10 17:01:00,49.1,32.7,29.90,North,360,5.0,7.0,53,0.00,,,0.00,0,Wunderground v.1.15,2013-11-10 22:01:00,
2013-11-10 17:11:00,48.9,33.0,29.90,North,360,4.0,4.0,54,0.00,,,0.00,0,Wunderground v.1.15,2013-11-10 22:11:00,
2013-11-10 17:25:00,48.6,32.7,29.91,North,360,3.0,3.0,54,0.00,,,0.00,0,Wunderground v.1.15,2013-11-10 22:25:00,
2013-11-10 17:35:00,48.8,32.4,29.91,North,360,3.0,3.0,53,0.00,,,0.00,0,Wunderground v.1.15,2013-11-10 22:35:00,
2013-11-10 17:43:00,48.9,32.0,29.91,North,360,4.0,5.0,52,0.00,,,0.00,0,Wunderground v.1.15,2013-11-10 22:43:00,
2013-11-10 17:55:00,49.1,31.2,29.91,North,360,4.0,4.0,50,0.00,,,0.00,0,Wunderground v.1.15,2013-11-10 22:55:00,
2013-11-10 18:03:00,49.2,30.3,29.92,North,360,5.0,7.0,48,0.00,,,0.00,0,Wunderground v.1.15,2013-11-10 23:03:00,
2013-11-10 18:12:00,49.4,30.0,29.92,North,360,5.0,5.0,47,0.00,,,0.00,0,Wunderground v.1.15,2013-11-10 23:12:00,
2013-11-10 18:22:00,49.4,29.5,29.92,North,360,4.0,4.0,46,0.00,,,0.00,0,Wunderground v.1.15,2013-11-10 23:22:00,
2013-11-10 18:30:00,49.5,28.5,29.92,North,360,5.0,5.0,44,0.00,,,0.00,0,Wunderground v.1.15,2013-11-10 23:30:00,
2013-11-10 18:36:00,49.5,28.5,29.93,North,360,5.0,5.0,44,0.00,,,0.00,0,Wunderground v.1.15,2013-11-10 23:36:00,
2013-11-10 18:42:00,49.6,28.0,29.93,North,360,5.0,5.0,43,0.00,,,0.00,0,Wunderground v.1.15,2013-11-10 23:42:00,
2013-11-10 18:50:00,49.5,27.9,29.93,North,360,4.0,5.0,43,0.00,,,0.00,0,Wunderground v.1.15,2013-11-10 23:50:00,
2013-11-10 18:56:00,49.5,27.9,29.93,North,360,4.0,5.0,43,0.00,,,0.00,0,Wunderground v.1.15,2013-11-10 23:56:00,
2013-11-10 19:02:00,49.5,27.9,29.94,North,360,4.0,7.0,43,0.00,,,0.00,0,Wunderground v.1.15,2013-11-11 00:02:00,
2013-11-10 19:10:00,49.4,27.8,29.94,North,360,4.0,4.0,43,0.00,,,0.00,0,Wunderground v.1.15,2013-11-11 00:10:00,
2013-11-10 19:16:00,49.2,27.6,29.94,North,360,4.0,5.0,43,0.00,,,0.00,0,Wunderground v.1.15,2013-11-11 00:16:00,
2013-11-10 19:22:00,49.1,27.5,29.94,North,360,3.0,5.0,43,0.00,,,0.00,0,Wunderground v.1.15,2013-11-11 00:22:00,
2013-11-10 19:30:00,49.2,27.1,29.94,NNE,27,4.0,5.0,42,0.00,,,0.00,0,Wunderground v.1.15,2013-11-11 00:30:00,
2013-11-10 19:36:00,49.4,27.2,29.94,NNE,26,4.0,8.0,42,0.00,,,0.00,0,Wunderground v.1.15,2013-11-11 00:36:00,
2013-11-10 19:42:00,49.4,27.2,29.94,North,360,5.0,8.0,42,0.00,,,0.00,0,Wunderground v.1.15,2013-11-11 00:42:00,
2013-11-10 19:49:00,49.4,27.2,29.94,North,360,4.0,8.0,42,0.00,,,0.00,0,Wunderground v.1.15,2013-11-11 00:49:00,
2013-11-10 19:55:00,49.4,26.7,29.94,North,360,5.0,5.0,41,0.00,,,0.00,0,Wunderground v.1.15,2013-11-11 00:55:00,
2013-11-10 20:01:00,49.4,26.7,29.94,North,360,5.0,5.0,41,0.00,,,0.00,0,Wunderground v.1.15,2013-11-11 01:01:00,
2013-11-10 20:09:00,49.4,26.7,29.94,North,360,5.0,7.0,41,0.00,,,0.00,0,Wunderground v.1.15,2013-11-11 01:09:00,
2013-11-10 20:15:00,49.2,27.1,29.94,North,360,4.0,4.0,42,0.00,,,0.00,0,Wunderground v.1.15,2013-11-11 01:15:00,
2013-11-10 20:21:00,49.1,26.4,29.95,North,360,3.0,4.0,41,0.00,,,0.00,0,Wunderground v.1.15,2013-11-11 01:21:00,
2013-11-10 20:29:00,49.1,26.4,29.95,North,360,4.0,4.0,41,0.00,,,0.00,0,Wunderground v.1.15,2013-11-11 01:29:00,
2013-11-10 20:35:00,48.9,26.2,29.95,North,360,4.0,4.0,41,0.00,,,0.00,0,Wunderground v.1.15,2013-11-11 01:35:00,
2013-11-10 20:42:00,48.9,26.2,29.95,North,360,4.0,6.0,41,0.00,,,0.00,0,Wunderground v.1.15,2013-11-11 01:42:00,
2013-11-10 20:50:00,48.9,26.2,29.96,North,360,4.0,6.0,41,0.00,,,0.00,0,Wunderground v.1.15,2013-11-11 01:50:00,
2013-11-10 20:56:00,48.9,26.2,29.96,North,360,4.0,7.0,41,0.00,,,0.00,0,Wunderground v.1.15,2013-11-11 01:56:00,
2013-11-10 21:02:00,48.9,26.2,29.97,North,360,4.0,7.0,41,0.00,,,0.00,0,Wunderground v.1.15,2013-11-11 02:02:00,
2013-11-10 21:10:00,49.1,26.4,29.97,North,360,4.0,10.0,41,0.00,,,0.00,0,Wunderground v.1.15,2013-11-11 02:10:00,
2013-11-10 21:16:00,48.9,26.8,29.97,NNE,29,4.0,5.0,42,0.00,,,0.00,0,Wunderground v.1.15,2013-11-11 02:16:00,
2013-11-10 21:22:00,48.8,26.7,29.97,North,360,4.0,7.0,42,0.00,,,0.00,0,Wunderground v.1.15,2013-11-11 02:22:00,
2013-11-10 21:28:00,48.6,26.5,29.97,North,360,3.0,4.0,42,0.00,,,0.00,0,Wunderground v.1.15,2013-11-11 02:28:00,
2013-11-10 21:34:00,48.6,26.5,29.97,North,360,3.0,6.0,42,0.00,,,0.00,0,Wunderground v.1.15,2013-11-11 02:34:00,
2013-11-10 21:40:00,48.5,27.0,29.97,North,360,4.0,4.0,43,0.00,,,0.00,0,Wunderground v.1.15,2013-11-11 02:40:00,
2013-11-10 21:46:00,48.5,27.0,29.97,NNE,30,4.0,4.0,43,0.00,,,0.00,0,Wunderground v.1.15,2013-11-11 02:46:00,
2013-11-10 21:52:00,48.5,26.4,29.97,North,360,4.0,6.0,42,0.00,,,0.00,0,Wunderground v.1.15,2013-11-11 02:52:00,
2013-11-10 22:00:00,48.5,27.0,29.97,North,360,4.0,9.0,43,0.00,,,0.00,0,Wunderground v.1.15,2013-11-11 03:00:00,
2013-11-10 22:05:00,48.3,26.8,29.97,North,360,4.0,4.0,43,0.00,,,0.00,0,Wunderground v.1.15,2013-11-11 03:05:00,
2013-11-10 22:11:00,48.3,26.8,29.97,North,360,3.0,5.0,43,0.00,,,0.00,0,Wunderground v.1.15,2013-11-11 03:11:00,
2013-11-10 22:19:00,48.3,26.8,29.97,North,360,2.0,3.0,43,0.00,,,0.00,0,Wunderground v.1.15,2013-11-11 03:19:00,
2013-11-10 22:25:00,48.3,26.8,29.97,North,360,3.0,3.0,43,0.00,,,0.00,0,Wunderground v.1.15,2013-11-11 03:25:00,
2013-11-10 22:31:00,48.2,26.7,29.98,NNE,30,3.0,4.0,43,0.00,,,0.00,0,Wunderground v.1.15,2013-11-11 03:31:00,
2013-11-10 22:39:00,48.0,27.1,29.98,North,360,2.0,3.0,44,0.00,,,0.00,0,Wunderground v.1.15,2013-11-11 03:39:00,
2013-11-10 22:45:00,47.9,27.0,29.98,North,360,4.0,4.0,44,0.00,,,0.00,0,Wunderground v.1.15,2013-11-11 03:45:00,
2013-11-10 22:51:00,47.9,27.0,29.98,North,360,3.0,6.0,44,0.00,,,0.00,0,Wunderground v.1.15,2013-11-11 03:51:00,
2013-11-10 22:59:00,47.7,26.8,29.98,North,360,3.0,4.0,44,0.00,,,0.00,0,Wunderground v.1.15,2013-11-11 03:59:00,
2013-11-10 23:05:00,47.6,27.3,29.99,North,360,3.0,3.0,45,0.00,,,0.00,0,Wunderground v.1.15,2013-11-11 04:05:00,
2013-11-10 23:11:00,47.6,27.3,29.99,North,360,3.0,3.0,45,0.00,,,0.00,0,Wunderground v.1.15,2013-11-11 04:11:00,
2013-11-10 23:19:00,47.4,27.1,29.99,North,360,2.0,2.0,45,0.00,,,0.00,0,Wunderground v.1.15,2013-11-11 04:19:00,
2013-11-10 23:25:00,47.4,27.1,29.99,North,360,3.0,3.0,45,0.00,,,0.00,0,Wunderground v.1.15,2013-11-11 04:25:00,
2013-11-10 23:31:00,47.4,27.1,30.00,North,360,3.0,4.0,45,0.00,,,0.00,0,Wunderground v.1.15,2013-11-11 04:31:00,
2013-11-10 23:36:00,47.3,27.5,30.00,North,360,2.0,3.0,46,0.00,,,0.00,0,Wunderground v.1.15,2013-11-11 04:36:00,
2013-11-10 23:42:00,47.1,27.4,30.00,North,360,2.0,4.0,46,0.00,,,0.00,0,Wunderground v.1.15,2013-11-11 04:42:00,
2013-11-10 23:49:00,47.0,27.3,30.01,North,360,1.0,4.0,46,0.00,,,0.00,0,Wunderground v.1.15,2013-11-11 04:49:00,
2013-11-10 23:56:00,46.8,27.1,30.01,North,360,1.0,1.0,46,0.00,,,0.00,0,Wunderground v.1.15,2013-11-11 04:56:00,